Terminal Aerodrome Forecast
Issued by NWS

Home | Current Version | Previous Version | Text Only | Print | Product List | Glossary On
Versions: 1 2 3 4 5 6 7 8 9 10 11 12 13 14
000
FTUS43 KFGF 210531
TAFDVL
TAF
KDVL 210531Z 2106/2206 13007KT 1/2SM -DZ FG OVC003
     FM211500 12006KT 1SM -DZ BR OVC003
     FM211800 12006KT 4SM -DZ BR OVC003=

USA.gov is the U.S. government's official web portal to all federal, state and local government web resources and services.